Masontown, WV (26542)

10:07 AM EST on January 30, 2015 (GMT -0500)
McKinney Cave Rd, Reedsville | Change Station
CLOSE
Current Station
Personal Weather Station
Location: Reedsville, WV
Elevation: 1703 ft
Nearby Weather Stations

Elev 1703 ft 39.53 °N, 79.81 °W | Updated 10 seconds ago

Snow
Snow
24.3 °F
Feels Like 19 °F
N
4.2
Wind Variable Wind from West
Gusts 7.4 mph

Today
High -- | Low -- °F
--% Chance of Precip.
Yesterday
High -- | Low -- °F
Precip. -- in
7:28 AM 5:36 PM
Waxing Gibbous, 83% visible
Pressure 30.22 in
Visibility 0.8 miles
Clouds Mostly Cloudy 2000 ft
Overcast 2700 ft
Windchill 19 °F
Dew Point 16 °F
Humidity 72%
Rainfall 0.00 in
Snow Depth Not available.
UV 1.0 out of 12
Pollen .10 out of 12
Air Quality Not available.
Flu Activity Not available.
METAR KMGW 301453Z 33009G15KT 3/4SM -SN BKN020 OVC027 M04/M08 A3018 RMK AO2 SNB31 SLP232 P0000 60000 T10441083 51023

More Conditions Fewer Conditions

Pressure 30.22 in
Visibility 0.8 miles
Clouds Mostly Cloudy 2000 ft
Overcast 2700 ft
Windchill 19 °F
Dew Point 16 °F
Humidity 72%
Rainfall 0.00 in
Snow Depth Not available.
UV 1.0 out of 12
Pollen .10 out of 12
Air Quality Not available.
Flu Activity Not available.
METAR KMGW 301453Z 33009G15KT 3/4SM -SN BKN020 OVC027 M04/M08 A3018 RMK AO2 SNB31 SLP232 P0000 60000 T10441083 51023

More Conditions Fewer Conditions

10-Day Weather Forecast

Almanac

Astronomy

Jan. 30, 2015 Rise Set
Actual Time
Civil Twilight
Nautical Twilight
Astronomical Twilight
Moon
Length of Visible Light
Length of Day
Tomorrow will be .
, % of the Moon is Illuminated

Today's Extremes

State Highs State Lows

Community

WunderPhotos

Upload Photos

1,791,779 photos uploaded!

WunderBlogs® & News

Nearby

Air Quality

  Air Quality AQ Index Pollutant
Not available.

Snow Depth

Station Depth Elevation

Earthquake Activity

City Distance Mag. Time & Date
Minimum magnitude displayed is 2.5.

Coastal Water Temperatures

Place Temperature

Nearby Weather Stations